sensor_id;sensor_type;location;lat;lon;timestamp;P1;durP1;ratioP1;P2;durP2;ratioP2
5521;SDS011;2783;48.730;8.006;2022-11-09T00:01:41;7.95;;;4.05;;
5521;SDS011;2783;48.730;8.006;2022-11-09T00:04:06;7.95;;;4.20;;
5521;SDS011;2783;48.730;8.006;2022-11-09T00:06:33;8.18;;;4.50;;
5521;SDS011;2783;48.730;8.006;2022-11-09T00:09:00;7.10;;;4.65;;
5521;SDS011;2783;48.730;8.006;2022-11-09T00:11:26;7.35;;;3.85;;
5521;SDS011;2783;48.730;8.006;2022-11-09T00:13:51;6.78;;;3.95;;
5521;SDS011;2783;48.730;8.006;2022-11-09T00:16:18;6.38;;;4.05;;
5521;SDS011;2783;48.730;8.006;2022-11-09T00:18:45;8.52;;;4.55;;
5521;SDS011;2783;48.730;8.006;2022-11-09T00:21:15;6.57;;;4.45;;
5521;SDS011;2783;48.730;8.006;2022-11-09T00:23:42;8.43;;;4.78;;
5521;SDS011;2783;48.730;8.006;2022-11-09T00:26:09;7.38;;;4.85;;
5521;SDS011;2783;48.730;8.006;2022-11-09T00:28:37;8.80;;;4.72;;
5521;SDS011;2783;48.730;8.006;2022-11-09T00:31:04;9.27;;;5.55;;
5521;SDS011;2783;48.730;8.006;2022-11-09T00:33:31;9.02;;;4.80;;
5521;SDS011;2783;48.730;8.006;2022-11-09T00:35:58;8.63;;;5.00;;
5521;SDS011;2783;48.730;8.006;2022-11-09T00:38:26;11.15;;;4.93;;
5521;SDS011;2783;48.730;8.006;2022-11-09T00:40:52;10.93;;;5.45;;
5521;SDS011;2783;48.730;8.006;2022-11-09T00:43:17;10.82;;;5.43;;
5521;SDS011;2783;48.730;8.006;2022-11-09T00:45:43;8.13;;;5.60;;
5521;SDS011;2783;48.730;8.006;2022-11-09T00:48:11;10.65;;;5.40;;
5521;SDS011;2783;48.730;8.006;2022-11-09T00:50:36;11.15;;;6.32;;
5521;SDS011;2783;48.730;8.006;2022-11-09T00:53:02;8.18;;;5.45;;
5521;SDS011;2783;48.730;8.006;2022-11-09T00:55:27;9.60;;;5.80;;
5521;SDS011;2783;48.730;8.006;2022-11-09T00:57:52;8.30;;;5.05;;
5521;SDS011;2783;48.730;8.006;2022-11-09T01:00:18;8.73;;;4.88;;
5521;SDS011;2783;48.730;8.006;2022-11-09T01:02:45;8.52;;;5.45;;
5521;SDS011;2783;48.730;8.006;2022-11-09T01:05:11;13.13;;;6.60;;
5521;SDS011;2783;48.730;8.006;2022-11-09T01:07:37;9.57;;;5.47;;
5521;SDS011;2783;48.730;8.006;2022-11-09T01:10:06;8.40;;;5.40;;
5521;SDS011;2783;48.730;8.006;2022-11-09T01:12:32;9.00;;;5.85;;
5521;SDS011;2783;48.730;8.006;2022-11-09T01:14:57;9.85;;;5.28;;
5521;SDS011;2783;48.730;8.006;2022-11-09T01:17:23;8.27;;;5.18;;
5521;SDS011;2783;48.730;8.006;2022-11-09T01:19:49;8.05;;;5.82;;
5521;SDS011;2783;48.730;8.006;2022-11-09T01:22:15;10.43;;;6.05;;
5521;SDS011;2783;48.730;8.006;2022-11-09T01:24:41;11.10;;;5.57;;
5521;SDS011;2783;48.730;8.006;2022-11-09T01:27:06;10.27;;;6.45;;
5521;SDS011;2783;48.730;8.006;2022-11-09T01:29:32;10.18;;;5.93;;
5521;SDS011;2783;48.730;8.006;2022-11-09T01:31:57;9.43;;;5.43;;
5521;SDS011;2783;48.730;8.006;2022-11-09T01:34:23;9.95;;;5.65;;
5521;SDS011;2783;48.730;8.006;2022-11-09T01:36:49;9.10;;;5.28;;
5521;SDS011;2783;48.730;8.006;2022-11-09T01:39:15;9.05;;;5.70;;
5521;SDS011;2783;48.730;8.006;2022-11-09T01:41:41;9.07;;;5.93;;
5521;SDS011;2783;48.730;8.006;2022-11-09T01:44:08;7.88;;;4.97;;
5521;SDS011;2783;48.730;8.006;2022-11-09T01:46:42;8.95;;;5.68;;
5521;SDS011;2783;48.730;8.006;2022-11-09T01:52:16;9.02;;;5.40;;
5521;SDS011;2783;48.730;8.006;2022-11-09T01:54:49;11.77;;;5.80;;
5521;SDS011;2783;48.730;8.006;2022-11-09T01:57:24;9.88;;;6.25;;
5521;SDS011;2783;48.730;8.006;2022-11-09T01:59:55;8.90;;;5.57;;
5521;SDS011;2783;48.730;8.006;2022-11-09T02:02:26;10.50;;;5.63;;
5521;SDS011;2783;48.730;8.006;2022-11-09T02:05:25;10.45;;;5.55;;
5521;SDS011;2783;48.730;8.006;2022-11-09T02:07:46;10.30;;;5.63;;
5521;SDS011;2783;48.730;8.006;2022-11-09T02:10:13;10.88;;;5.65;;
5521;SDS011;2783;48.730;8.006;2022-11-09T02:12:46;8.55;;;5.32;;
5521;SDS011;2783;48.730;8.006;2022-11-09T02:15:12;11.15;;;5.80;;
5521;SDS011;2783;48.730;8.006;2022-11-09T02:17:38;10.75;;;6.07;;
5521;SDS011;2783;48.730;8.006;2022-11-09T02:20:07;12.00;;;6.15;;
5521;SDS011;2783;48.730;8.006;2022-11-09T02:22:35;10.98;;;6.18;;
5521;SDS011;2783;48.730;8.006;2022-11-09T02:25:01;9.48;;;5.47;;
5521;SDS011;2783;48.730;8.006;2022-11-09T02:27:27;10.23;;;5.90;;
5521;SDS011;2783;48.730;8.006;2022-11-09T02:29:53;10.73;;;5.97;;
5521;SDS011;2783;48.730;8.006;2022-11-09T02:32:21;11.25;;;5.97;;
5521;SDS011;2783;48.730;8.006;2022-11-09T02:34:50;9.10;;;5.82;;
5521;SDS011;2783;48.730;8.006;2022-11-09T02:40:03;11.10;;;5.80;;
5521;SDS011;2783;48.730;8.006;2022-11-09T02:42:34;11.18;;;6.45;;
5521;SDS011;2783;48.730;8.006;2022-11-09T02:45:00;7.97;;;4.75;;
5521;SDS011;2783;48.730;8.006;2022-11-09T02:47:25;11.55;;;6.00;;
5521;SDS011;2783;48.730;8.006;2022-11-09T02:49:51;11.65;;;5.70;;
5521;SDS011;2783;48.730;8.006;2022-11-09T02:52:17;8.10;;;4.95;;
5521;SDS011;2783;48.730;8.006;2022-11-09T02:54:42;11.05;;;5.70;;
5521;SDS011;2783;48.730;8.006;2022-11-09T02:57:08;9.25;;;4.45;;
5521;SDS011;2783;48.730;8.006;2022-11-09T02:59:33;6.43;;;4.55;;
5521;SDS011;2783;48.730;8.006;2022-11-09T03:01:59;9.23;;;4.80;;
5521;SDS011;2783;48.730;8.006;2022-11-09T03:04:25;12.13;;;4.78;;
5521;SDS011;2783;48.730;8.006;2022-11-09T03:06:50;6.75;;;3.75;;
5521;SDS011;2783;48.730;8.006;2022-11-09T03:09:15;8.20;;;4.65;;
5521;SDS011;2783;48.730;8.006;2022-11-09T03:11:41;6.38;;;4.15;;
5521;SDS011;2783;48.730;8.006;2022-11-09T03:14:07;9.65;;;4.35;;
5521;SDS011;2783;48.730;8.006;2022-11-09T03:16:36;7.20;;;4.07;;
5521;SDS011;2783;48.730;8.006;2022-11-09T03:19:02;8.85;;;4.55;;
5521;SDS011;2783;48.730;8.006;2022-11-09T03:21:28;9.35;;;4.97;;
5521;SDS011;2783;48.730;8.006;2022-11-09T03:23:54;9.48;;;4.55;;
5521;SDS011;2783;48.730;8.006;2022-11-09T03:26:20;9.95;;;4.78;;
5521;SDS011;2783;48.730;8.006;2022-11-09T03:28:45;7.47;;;4.40;;
5521;SDS011;2783;48.730;8.006;2022-11-09T03:31:11;7.03;;;3.60;;
5521;SDS011;2783;48.730;8.006;2022-11-09T03:33:37;5.57;;;3.38;;
5521;SDS011;2783;48.730;8.006;2022-11-09T03:36:02;7.38;;;3.30;;
5521;SDS011;2783;48.730;8.006;2022-11-09T03:38:28;7.43;;;3.83;;
5521;SDS011;2783;48.730;8.006;2022-11-09T03:40:54;7.10;;;3.65;;
5521;SDS011;2783;48.730;8.006;2022-11-09T03:43:19;7.30;;;3.78;;
5521;SDS011;2783;48.730;8.006;2022-11-09T03:45:45;9.65;;;3.53;;
5521;SDS011;2783;48.730;8.006;2022-11-09T03:48:12;7.00;;;3.20;;
5521;SDS011;2783;48.730;8.006;2022-11-09T03:50:37;16.42;;;3.67;;
5521;SDS011;2783;48.730;8.006;2022-11-09T03:53:06;4.47;;;2.55;;
5521;SDS011;2783;48.730;8.006;2022-11-09T03:55:33;6.80;;;3.08;;
5521;SDS011;2783;48.730;8.006;2022-11-09T03:57:59;5.20;;;2.75;;
5521;SDS011;2783;48.730;8.006;2022-11-09T04:00:24;3.55;;;1.60;;
5521;SDS011;2783;48.730;8.006;2022-11-09T04:02:50;3.58;;;2.22;;
5521;SDS011;2783;48.730;8.006;2022-11-09T04:05:16;3.47;;;2.03;;
5521;SDS011;2783;48.730;8.006;2022-11-09T04:07:52;3.28;;;1.88;;
5521;SDS011;2783;48.730;8.006;2022-11-09T04:10:19;2.50;;;1.52;;
5521;SDS011;2783;48.730;8.006;2022-11-09T04:12:46;2.63;;;1.30;;
5521;SDS011;2783;48.730;8.006;2022-11-09T04:15:11;4.80;;;1.25;;
5521;SDS011;2783;48.730;8.006;2022-11-09T04:17:37;4.05;;;1.42;;
5521;SDS011;2783;48.730;8.006;2022-11-09T04:20:04;3.88;;;1.35;;
5521;SDS011;2783;48.730;8.006;2022-11-09T04:22:30;3.15;;;1.33;;
5521;SDS011;2783;48.730;8.006;2022-11-09T04:24:55;4.53;;;2.25;;
5521;SDS011;2783;48.730;8.006;2022-11-09T04:27:21;2.22;;;1.20;;
5521;SDS011;2783;48.730;8.006;2022-11-09T04:29:46;3.03;;;1.77;;
5521;SDS011;2783;48.730;8.006;2022-11-09T04:32:12;2.85;;;1.38;;
5521;SDS011;2783;48.730;8.006;2022-11-09T04:34:37;2.58;;;1.33;;
5521;SDS011;2783;48.730;8.006;2022-11-09T04:37:05;2.53;;;1.30;;
5521;SDS011;2783;48.730;8.006;2022-11-09T04:39:30;3.63;;;1.27;;
5521;SDS011;2783;48.730;8.006;2022-11-09T04:41:56;3.70;;;2.67;;
5521;SDS011;2783;48.730;8.006;2022-11-09T04:44:21;2.63;;;1.25;;
5521;SDS011;2783;48.730;8.006;2022-11-09T04:46:47;2.20;;;1.30;;
5521;SDS011;2783;48.730;8.006;2022-11-09T04:49:12;2.42;;;1.45;;
5521;SDS011;2783;48.730;8.006;2022-11-09T04:51:37;1.25;;;1.10;;
5521;SDS011;2783;48.730;8.006;2022-11-09T04:54:03;2.90;;;1.50;;
5521;SDS011;2783;48.730;8.006;2022-11-09T04:56:28;3.28;;;1.70;;
5521;SDS011;2783;48.730;8.006;2022-11-09T04:58:54;2.97;;;1.70;;
5521;SDS011;2783;48.730;8.006;2022-11-09T05:01:19;2.75;;;1.63;;
5521;SDS011;2783;48.730;8.006;2022-11-09T05:03:44;9.10;;;1.77;;
5521;SDS011;2783;48.730;8.006;2022-11-09T05:06:10;4.60;;;1.60;;
5521;SDS011;2783;48.730;8.006;2022-11-09T05:08:54;3.35;;;2.00;;
5521;SDS011;2783;48.730;8.006;2022-11-09T05:11:20;3.42;;;1.67;;
5521;SDS011;2783;48.730;8.006;2022-11-09T05:13:46;5.78;;;2.17;;
5521;SDS011;2783;48.730;8.006;2022-11-09T05:16:12;6.68;;;1.80;;
5521;SDS011;2783;48.730;8.006;2022-11-09T05:18:38;4.45;;;1.90;;
5521;SDS011;2783;48.730;8.006;2022-11-09T05:21:04;7.05;;;1.63;;
5521;SDS011;2783;48.730;8.006;2022-11-09T05:23:29;6.35;;;2.15;;
5521;SDS011;2783;48.730;8.006;2022-11-09T05:26:14;3.33;;;2.08;;
5521;SDS011;2783;48.730;8.006;2022-11-09T05:28:39;4.57;;;2.05;;
5521;SDS011;2783;48.730;8.006;2022-11-09T05:31:05;2.92;;;1.70;;
5521;SDS011;2783;48.730;8.006;2022-11-09T05:33:31;4.60;;;2.25;;
5521;SDS011;2783;48.730;8.006;2022-11-09T05:35:56;4.95;;;2.38;;
5521;SDS011;2783;48.730;8.006;2022-11-09T05:38:22;5.40;;;2.97;;
5521;SDS011;2783;48.730;8.006;2022-11-09T05:40:51;11.65;;;3.38;;
5521;SDS011;2783;48.730;8.006;2022-11-09T05:43:17;5.68;;;3.10;;
5521;SDS011;2783;48.730;8.006;2022-11-09T05:45:43;5.25;;;2.90;;
5521;SDS011;2783;48.730;8.006;2022-11-09T05:48:09;8.32;;;3.40;;
5521;SDS011;2783;48.730;8.006;2022-11-09T05:50:36;5.75;;;3.40;;
5521;SDS011;2783;48.730;8.006;2022-11-09T05:53:01;5.65;;;3.45;;
5521;SDS011;2783;48.730;8.006;2022-11-09T05:55:27;5.35;;;3.10;;
5521;SDS011;2783;48.730;8.006;2022-11-09T05:57:52;5.35;;;3.10;;
5521;SDS011;2783;48.730;8.006;2022-11-09T06:00:18;4.20;;;2.67;;
5521;SDS011;2783;48.730;8.006;2022-11-09T06:02:44;6.88;;;3.63;;
5521;SDS011;2783;48.730;8.006;2022-11-09T06:05:10;6.55;;;3.95;;
5521;SDS011;2783;48.730;8.006;2022-11-09T06:07:36;7.35;;;4.28;;
5521;SDS011;2783;48.730;8.006;2022-11-09T06:10:01;7.88;;;4.40;;
5521;SDS011;2783;48.730;8.006;2022-11-09T06:12:27;9.23;;;4.40;;
5521;SDS011;2783;48.730;8.006;2022-11-09T06:14:52;6.40;;;3.65;;
5521;SDS011;2783;48.730;8.006;2022-11-09T06:17:17;9.75;;;4.35;;
5521;SDS011;2783;48.730;8.006;2022-11-09T06:19:43;10.52;;;4.07;;
5521;SDS011;2783;48.730;8.006;2022-11-09T06:22:08;6.43;;;4.10;;
5521;SDS011;2783;48.730;8.006;2022-11-09T06:24:34;7.80;;;4.03;;
5521;SDS011;2783;48.730;8.006;2022-11-09T06:27:00;7.05;;;4.03;;
5521;SDS011;2783;48.730;8.006;2022-11-09T06:29:26;6.45;;;4.28;;
5521;SDS011;2783;48.730;8.006;2022-11-09T06:31:51;10.77;;;6.30;;
5521;SDS011;2783;48.730;8.006;2022-11-09T06:34:17;6.65;;;4.13;;
5521;SDS011;2783;48.730;8.006;2022-11-09T06:36:42;6.30;;;3.50;;
5521;SDS011;2783;48.730;8.006;2022-11-09T06:39:08;6.10;;;2.85;;
5521;SDS011;2783;48.730;8.006;2022-11-09T06:41:34;4.80;;;3.00;;
5521;SDS011;2783;48.730;8.006;2022-11-09T06:43:59;6.53;;;4.00;;
5521;SDS011;2783;48.730;8.006;2022-11-09T06:46:25;10.20;;;6.53;;
5521;SDS011;2783;48.730;8.006;2022-11-09T06:48:50;12.27;;;6.43;;
5521;SDS011;2783;48.730;8.006;2022-11-09T06:51:16;9.85;;;5.80;;
5521;SDS011;2783;48.730;8.006;2022-11-09T06:53:42;7.32;;;4.35;;
5521;SDS011;2783;48.730;8.006;2022-11-09T06:56:07;8.15;;;4.43;;
5521;SDS011;2783;48.730;8.006;2022-11-09T06:58:33;6.70;;;4.35;;
5521;SDS011;2783;48.730;8.006;2022-11-09T07:00:59;8.20;;;4.25;;
5521;SDS011;2783;48.730;8.006;2022-11-09T07:03:32;7.82;;;4.43;;
5521;SDS011;2783;48.730;8.006;2022-11-09T07:06:02;6.70;;;4.28;;
5521;SDS011;2783;48.730;8.006;2022-11-09T07:08:32;6.50;;;3.42;;
5521;SDS011;2783;48.730;8.006;2022-11-09T07:11:03;6.18;;;3.72;;
5521;SDS011;2783;48.730;8.006;2022-11-09T07:13:32;7.18;;;2.92;;
5521;SDS011;2783;48.730;8.006;2022-11-09T07:15:57;7.70;;;3.25;;
5521;SDS011;2783;48.730;8.006;2022-11-09T07:18:23;5.53;;;2.95;;
5521;SDS011;2783;48.730;8.006;2022-11-09T07:20:48;4.85;;;2.95;;
5521;SDS011;2783;48.730;8.006;2022-11-09T07:23:14;6.93;;;4.03;;
5521;SDS011;2783;48.730;8.006;2022-11-09T07:25:39;5.85;;;3.70;;
5521;SDS011;2783;48.730;8.006;2022-11-09T07:28:05;5.40;;;3.03;;
5521;SDS011;2783;48.730;8.006;2022-11-09T07:30:36;5.53;;;2.42;;
5521;SDS011;2783;48.730;8.006;2022-11-09T07:33:02;4.82;;;2.17;;
5521;SDS011;2783;48.730;8.006;2022-11-09T07:35:28;4.30;;;2.13;;
5521;SDS011;2783;48.730;8.006;2022-11-09T07:37:54;5.68;;;2.15;;
5521;SDS011;2783;48.730;8.006;2022-11-09T07:40:23;2.67;;;1.50;;
5521;SDS011;2783;48.730;8.006;2022-11-09T07:42:49;1.92;;;1.42;;
5521;SDS011;2783;48.730;8.006;2022-11-09T07:45:14;3.08;;;1.90;;
5521;SDS011;2783;48.730;8.006;2022-11-09T07:47:40;3.72;;;1.83;;
5521;SDS011;2783;48.730;8.006;2022-11-09T07:50:05;4.38;;;2.10;;
5521;SDS011;2783;48.730;8.006;2022-11-09T07:52:31;3.83;;;1.90;;
5521;SDS011;2783;48.730;8.006;2022-11-09T07:54:56;3.80;;;2.25;;
5521;SDS011;2783;48.730;8.006;2022-11-09T07:57:25;4.05;;;1.90;;
5521;SDS011;2783;48.730;8.006;2022-11-09T07:59:50;3.80;;;2.60;;
5521;SDS011;2783;48.730;8.006;2022-11-09T08:02:17;3.67;;;2.25;;
5521;SDS011;2783;48.730;8.006;2022-11-09T08:04:43;4.47;;;2.15;;
5521;SDS011;2783;48.730;8.006;2022-11-09T08:07:08;4.72;;;2.15;;
5521;SDS011;2783;48.730;8.006;2022-11-09T08:09:34;4.93;;;1.98;;
5521;SDS011;2783;48.730;8.006;2022-11-09T08:11:59;4.38;;;2.20;;
5521;SDS011;2783;48.730;8.006;2022-11-09T08:14:25;3.28;;;2.08;;
5521;SDS011;2783;48.730;8.006;2022-11-09T08:16:50;6.22;;;2.00;;
5521;SDS011;2783;48.730;8.006;2022-11-09T08:19:16;2.85;;;1.67;;
5521;SDS011;2783;48.730;8.006;2022-11-09T08:21:41;4.25;;;1.85;;
5521;SDS011;2783;48.730;8.006;2022-11-09T08:24:07;2.55;;;1.80;;
5521;SDS011;2783;48.730;8.006;2022-11-09T08:26:32;2.58;;;1.70;;
5521;SDS011;2783;48.730;8.006;2022-11-09T08:28:58;8.88;;;2.15;;
5521;SDS011;2783;48.730;8.006;2022-11-09T08:31:23;2.85;;;1.80;;
5521;SDS011;2783;48.730;8.006;2022-11-09T08:33:49;3.70;;;1.80;;
5521;SDS011;2783;48.730;8.006;2022-11-09T08:36:15;2.50;;;1.50;;
5521;SDS011;2783;48.730;8.006;2022-11-09T08:38:42;3.70;;;2.00;;
5521;SDS011;2783;48.730;8.006;2022-11-09T08:41:08;2.97;;;1.92;;
5521;SDS011;2783;48.730;8.006;2022-11-09T08:43:34;4.03;;;1.58;;
5521;SDS011;2783;48.730;8.006;2022-11-09T08:46:00;3.88;;;2.22;;
5521;SDS011;2783;48.730;8.006;2022-11-09T08:48:25;4.57;;;2.22;;
5521;SDS011;2783;48.730;8.006;2022-11-09T08:50:52;4.78;;;2.15;;
5521;SDS011;2783;48.730;8.006;2022-11-09T08:53:18;6.22;;;2.17;;
5521;SDS011;2783;48.730;8.006;2022-11-09T08:55:43;3.20;;;1.45;;
5521;SDS011;2783;48.730;8.006;2022-11-09T08:58:09;3.33;;;1.60;;
5521;SDS011;2783;48.730;8.006;2022-11-09T09:00:34;2.70;;;1.52;;
5521;SDS011;2783;48.730;8.006;2022-11-09T09:03:03;2.58;;;1.63;;
5521;SDS011;2783;48.730;8.006;2022-11-09T09:05:30;2.78;;;1.33;;
5521;SDS011;2783;48.730;8.006;2022-11-09T09:08:00;3.05;;;1.40;;
5521;SDS011;2783;48.730;8.006;2022-11-09T09:10:27;5.85;;;1.95;;
5521;SDS011;2783;48.730;8.006;2022-11-09T09:12:53;6.63;;;2.90;;
5521;SDS011;2783;48.730;8.006;2022-11-09T09:15:19;5.55;;;2.13;;
5521;SDS011;2783;48.730;8.006;2022-11-09T09:17:45;5.45;;;1.63;;
5521;SDS011;2783;48.730;8.006;2022-11-09T09:20:13;3.50;;;1.70;;
5521;SDS011;2783;48.730;8.006;2022-11-09T09:22:40;3.70;;;1.50;;
5521;SDS011;2783;48.730;8.006;2022-11-09T09:25:05;6.05;;;2.92;;
5521;SDS011;2783;48.730;8.006;2022-11-09T09:27:32;7.60;;;3.03;;
5521;SDS011;2783;48.730;8.006;2022-11-09T09:29:58;9.55;;;3.63;;
5521;SDS011;2783;48.730;8.006;2022-11-09T09:32:23;9.00;;;3.35;;
5521;SDS011;2783;48.730;8.006;2022-11-09T09:34:49;7.95;;;3.22;;
5521;SDS011;2783;48.730;8.006;2022-11-09T09:37:15;6.78;;;2.45;;
5521;SDS011;2783;48.730;8.006;2022-11-09T09:39:41;3.97;;;1.73;;
5521;SDS011;2783;48.730;8.006;2022-11-09T09:42:07;5.57;;;2.00;;
5521;SDS011;2783;48.730;8.006;2022-11-09T09:44:48;4.55;;;1.75;;
5521;SDS011;2783;48.730;8.006;2022-11-09T09:50:19;2.28;;;1.10;;
5521;SDS011;2783;48.730;8.006;2022-11-09T09:52:56;2.70;;;1.25;;
5521;SDS011;2783;48.730;8.006;2022-11-09T09:58:27;3.15;;;1.45;;
5521;SDS011;2783;48.730;8.006;2022-11-09T10:00:54;2.67;;;1.30;;
5521;SDS011;2783;48.730;8.006;2022-11-09T10:03:22;2.08;;;1.48;;
5521;SDS011;2783;48.730;8.006;2022-11-09T10:06:00;4.78;;;1.90;;
5521;SDS011;2783;48.730;8.006;2022-11-09T10:19:22;6.22;;;2.25;;
5521;SDS011;2783;48.730;8.006;2022-11-09T10:21:57;4.47;;;1.92;;
5521;SDS011;2783;48.730;8.006;2022-11-09T10:27:24;3.15;;;1.85;;
5521;SDS011;2783;48.730;8.006;2022-11-09T10:29:52;3.17;;;1.88;;
5521;SDS011;2783;48.730;8.006;2022-11-09T10:32:19;4.18;;;2.28;;
5521;SDS011;2783;48.730;8.006;2022-11-09T10:34:53;3.78;;;2.10;;
5521;SDS011;2783;48.730;8.006;2022-11-09T10:37:38;2.58;;;1.60;;
5521;SDS011;2783;48.730;8.006;2022-11-09T10:43:10;5.82;;;1.98;;
5521;SDS011;2783;48.730;8.006;2022-11-09T10:45:37;3.80;;;1.70;;
5521;SDS011;2783;48.730;8.006;2022-11-09T10:48:06;4.40;;;2.13;;
5521;SDS011;2783;48.730;8.006;2022-11-09T10:50:34;4.80;;;2.30;;
5521;SDS011;2783;48.730;8.006;2022-11-09T10:53:19;3.20;;;2.10;;
5521;SDS011;2783;48.730;8.006;2022-11-09T10:58:24;4.88;;;2.20;;
5521;SDS011;2783;48.730;8.006;2022-11-09T11:03:25;3.95;;;2.20;;
5521;SDS011;2783;48.730;8.006;2022-11-09T11:05:58;5.72;;;2.35;;
5521;SDS011;2783;48.730;8.006;2022-11-09T11:08:44;4.38;;;2.40;;
5521;SDS011;2783;48.730;8.006;2022-11-09T11:13:52;4.50;;;2.60;;
5521;SDS011;2783;48.730;8.006;2022-11-09T11:16:48;5.03;;;2.95;;
5521;SDS011;2783;48.730;8.006;2022-11-09T11:19:32;5.85;;;2.53;;
5521;SDS011;2783;48.730;8.006;2022-11-09T11:22:23;5.78;;;2.72;;
5521;SDS011;2783;48.730;8.006;2022-11-09T11:27:18;4.30;;;2.70;;
5521;SDS011;2783;48.730;8.006;2022-11-09T11:29:46;4.28;;;2.55;;
5521;SDS011;2783;48.730;8.006;2022-11-09T11:32:20;4.15;;;2.50;;
5521;SDS011;2783;48.730;8.006;2022-11-09T11:34:47;4.93;;;2.60;;
5521;SDS011;2783;48.730;8.006;2022-11-09T11:40:09;4.50;;;2.70;;
5521;SDS011;2783;48.730;8.006;2022-11-09T11:45:27;6.35;;;2.80;;
5521;SDS011;2783;48.730;8.006;2022-11-09T11:56:23;7.53;;;3.17;;
5521;SDS011;2783;48.730;8.006;2022-11-09T12:06:51;7.00;;;3.35;;
5521;SDS011;2783;48.730;8.006;2022-11-09T12:09:32;4.95;;;3.08;;
5521;SDS011;2783;48.730;8.006;2022-11-09T12:12:30;5.88;;;3.38;;
5521;SDS011;2783;48.730;8.006;2022-11-09T12:15:20;6.53;;;4.07;;
5521;SDS011;2783;48.730;8.006;2022-11-09T12:18:09;4.85;;;3.00;;
5521;SDS011;2783;48.730;8.006;2022-11-09T12:20:56;4.45;;;2.63;;
5521;SDS011;2783;48.730;8.006;2022-11-09T12:29:20;5.25;;;2.90;;
5521;SDS011;2783;48.730;8.006;2022-11-09T12:35:40;7.65;;;3.03;;
5521;SDS011;2783;48.730;8.006;2022-11-09T12:37:53;4.90;;;2.72;;
5521;SDS011;2783;48.730;8.006;2022-11-09T12:40:24;5.25;;;2.90;;
5521;SDS011;2783;48.730;8.006;2022-11-09T12:45:43;6.32;;;3.85;;
5521;SDS011;2783;48.730;8.006;2022-11-09T12:50:40;12.10;;;3.75;;
5521;SDS011;2783;48.730;8.006;2022-11-09T12:53:06;7.30;;;3.22;;
5521;SDS011;2783;48.730;8.006;2022-11-09T12:58:27;8.30;;;3.37;;
5521;SDS011;2783;48.730;8.006;2022-11-09T13:00:55;6.53;;;3.00;;
5521;SDS011;2783;48.730;8.006;2022-11-09T13:03:30;5.75;;;3.22;;
5521;SDS011;2783;48.730;8.006;2022-11-09T13:06:08;7.72;;;3.38;;
5521;SDS011;2783;48.730;8.006;2022-11-09T13:09:02;6.57;;;3.45;;
5521;SDS011;2783;48.730;8.006;2022-11-09T13:16:53;6.63;;;3.05;;
5521;SDS011;2783;48.730;8.006;2022-11-09T13:20:02;8.18;;;3.63;;
5521;SDS011;2783;48.730;8.006;2022-11-09T13:29:57;5.00;;;3.22;;
5521;SDS011;2783;48.730;8.006;2022-11-09T13:32:30;6.20;;;3.22;;
5521;SDS011;2783;48.730;8.006;2022-11-09T13:35:00;5.40;;;2.97;;
5521;SDS011;2783;48.730;8.006;2022-11-09T13:43:02;4.88;;;2.45;;
5521;SDS011;2783;48.730;8.006;2022-11-09T13:45:51;4.95;;;2.72;;
5521;SDS011;2783;48.730;8.006;2022-11-09T13:48:29;6.38;;;3.25;;
5521;SDS011;2783;48.730;8.006;2022-11-09T13:51:02;5.30;;;3.03;;
5521;SDS011;2783;48.730;8.006;2022-11-09T13:53:46;5.93;;;3.20;;
5521;SDS011;2783;48.730;8.006;2022-11-09T13:56:13;6.03;;;3.70;;
5521;SDS011;2783;48.730;8.006;2022-11-09T13:58:43;4.93;;;2.90;;
5521;SDS011;2783;48.730;8.006;2022-11-09T14:01:24;5.43;;;3.30;;
5521;SDS011;2783;48.730;8.006;2022-11-09T14:03:51;5.80;;;3.28;;
5521;SDS011;2783;48.730;8.006;2022-11-09T14:06:16;4.15;;;2.50;;
5521;SDS011;2783;48.730;8.006;2022-11-09T14:08:42;4.60;;;2.55;;
5521;SDS011;2783;48.730;8.006;2022-11-09T14:13:51;5.00;;;2.95;;
5521;SDS011;2783;48.730;8.006;2022-11-09T14:16:36;5.13;;;2.80;;
5521;SDS011;2783;48.730;8.006;2022-11-09T14:19:23;6.13;;;3.30;;
5521;SDS011;2783;48.730;8.006;2022-11-09T14:22:13;5.03;;;3.15;;
5521;SDS011;2783;48.730;8.006;2022-11-09T14:24:40;8.32;;;4.85;;
5521;SDS011;2783;48.730;8.006;2022-11-09T14:29:32;10.48;;;4.93;;
5521;SDS011;2783;48.730;8.006;2022-11-09T14:31:59;8.35;;;4.75;;
5521;SDS011;2783;48.730;8.006;2022-11-09T14:34:43;5.60;;;3.45;;
5521;SDS011;2783;48.730;8.006;2022-11-09T14:37:10;6.88;;;3.10;;
5521;SDS011;2783;48.730;8.006;2022-11-09T14:39:37;5.95;;;3.72;;
5521;SDS011;2783;48.730;8.006;2022-11-09T14:42:04;5.43;;;2.42;;
5521;SDS011;2783;48.730;8.006;2022-11-09T14:44:37;5.00;;;2.78;;
5521;SDS011;2783;48.730;8.006;2022-11-09T14:47:49;7.35;;;3.22;;
5521;SDS011;2783;48.730;8.006;2022-11-09T14:49:56;8.25;;;4.15;;
5521;SDS011;2783;48.730;8.006;2022-11-09T14:52:25;8.95;;;4.93;;
5521;SDS011;2783;48.730;8.006;2022-11-09T14:54:53;7.70;;;4.00;;
5521;SDS011;2783;48.730;8.006;2022-11-09T14:57:18;9.95;;;4.60;;
5521;SDS011;2783;48.730;8.006;2022-11-09T14:59:45;5.88;;;3.83;;
5521;SDS011;2783;48.730;8.006;2022-11-09T15:02:13;7.85;;;4.32;;
5521;SDS011;2783;48.730;8.006;2022-11-09T15:04:51;9.18;;;4.30;;
5521;SDS011;2783;48.730;8.006;2022-11-09T15:07:20;6.85;;;3.72;;
5521;SDS011;2783;48.730;8.006;2022-11-09T15:09:49;6.57;;;3.83;;
5521;SDS011;2783;48.730;8.006;2022-11-09T15:12:18;5.43;;;3.72;;
5521;SDS011;2783;48.730;8.006;2022-11-09T15:14:48;7.18;;;3.88;;
5521;SDS011;2783;48.730;8.006;2022-11-09T15:19:48;19.30;;;12.90;;
5521;SDS011;2783;48.730;8.006;2022-11-09T15:25:16;7.72;;;4.93;;
5521;SDS011;2783;48.730;8.006;2022-11-09T15:35:50;7.30;;;4.30;;
5521;SDS011;2783;48.730;8.006;2022-11-09T15:40:57;5.57;;;2.97;;
5521;SDS011;2783;48.730;8.006;2022-11-09T15:43:23;5.00;;;2.90;;
5521;SDS011;2783;48.730;8.006;2022-11-09T15:45:49;6.43;;;3.60;;
5521;SDS011;2783;48.730;8.006;2022-11-09T15:48:14;10.48;;;5.93;;
5521;SDS011;2783;48.730;8.006;2022-11-09T15:50:40;11.23;;;6.82;;
5521;SDS011;2783;48.730;8.006;2022-11-09T15:53:06;7.93;;;6.20;;
5521;SDS011;2783;48.730;8.006;2022-11-09T15:55:31;7.22;;;4.90;;
5521;SDS011;2783;48.730;8.006;2022-11-09T15:57:57;6.90;;;4.72;;
5521;SDS011;2783;48.730;8.006;2022-11-09T16:00:22;6.70;;;4.22;;
5521;SDS011;2783;48.730;8.006;2022-11-09T16:02:48;5.60;;;3.83;;
5521;SDS011;2783;48.730;8.006;2022-11-09T16:05:13;6.13;;;3.83;;
5521;SDS011;2783;48.730;8.006;2022-11-09T16:07:46;8.13;;;3.90;;
5521;SDS011;2783;48.730;8.006;2022-11-09T16:10:16;5.15;;;3.78;;
5521;SDS011;2783;48.730;8.006;2022-11-09T16:12:44;6.60;;;4.28;;
5521;SDS011;2783;48.730;8.006;2022-11-09T16:15:10;7.13;;;3.72;;
5521;SDS011;2783;48.730;8.006;2022-11-09T16:17:36;9.77;;;5.30;;
5521;SDS011;2783;48.730;8.006;2022-11-09T16:20:01;9.57;;;5.30;;
5521;SDS011;2783;48.730;8.006;2022-11-09T16:22:30;6.88;;;4.22;;
5521;SDS011;2783;48.730;8.006;2022-11-09T16:24:57;8.63;;;4.47;;
5521;SDS011;2783;48.730;8.006;2022-11-09T16:27:23;8.85;;;4.32;;
5521;SDS011;2783;48.730;8.006;2022-11-09T16:29:49;5.70;;;3.00;;
5521;SDS011;2783;48.730;8.006;2022-11-09T16:32:15;6.68;;;3.60;;
5521;SDS011;2783;48.730;8.006;2022-11-09T16:34:40;5.70;;;3.35;;
5521;SDS011;2783;48.730;8.006;2022-11-09T16:37:05;8.60;;;4.05;;
5521;SDS011;2783;48.730;8.006;2022-11-09T16:39:31;6.03;;;3.33;;
5521;SDS011;2783;48.730;8.006;2022-11-09T16:41:58;6.90;;;3.42;;
5521;SDS011;2783;48.730;8.006;2022-11-09T16:44:29;8.55;;;3.22;;
5521;SDS011;2783;48.730;8.006;2022-11-09T16:46:58;5.88;;;3.88;;
5521;SDS011;2783;48.730;8.006;2022-11-09T16:49:26;7.50;;;4.55;;
5521;SDS011;2783;48.730;8.006;2022-11-09T16:51:51;12.50;;;7.90;;
5521;SDS011;2783;48.730;8.006;2022-11-09T16:54:16;11.77;;;7.82;;
5521;SDS011;2783;48.730;8.006;2022-11-09T16:56:42;7.22;;;5.25;;
5521;SDS011;2783;48.730;8.006;2022-11-09T16:59:07;12.00;;;4.50;;
5521;SDS011;2783;48.730;8.006;2022-11-09T17:01:33;22.85;;;6.25;;
5521;SDS011;2783;48.730;8.006;2022-11-09T17:03:58;56.30;;;8.15;;
5521;SDS011;2783;48.730;8.006;2022-11-09T17:06:24;30.67;;;7.00;;
5521;SDS011;2783;48.730;8.006;2022-11-09T17:08:49;32.80;;;7.65;;
5521;SDS011;2783;48.730;8.006;2022-11-09T17:11:20;16.23;;;5.15;;
5521;SDS011;2783;48.730;8.006;2022-11-09T17:13:45;20.27;;;4.43;;
5521;SDS011;2783;48.730;8.006;2022-11-09T17:16:11;8.75;;;4.40;;
5521;SDS011;2783;48.730;8.006;2022-11-09T17:18:37;8.60;;;4.25;;